Time;durP1;ratioP1;P1;durP2;ratioP2;P2;SDS_P1;SDS_P2;PMS_P1;PMS_P2;Temp;Humidity;BMP_temperature;BMP_pressure;BME280_temperature;BME280_humidity;BME280_pressure;Samples;Min_cycle;Max_cycle;Signal;HPM_P1;HPM_P2
2023/04/18 00:01:17;;;;;;;18.58;11.27;;;7.30;99.90;;;;;;4751602;30;20067;-38
2023/04/18 00:03:45;;;;;;;14.50;10.80;;;7.30;99.90;;;;;;4754716;30;20051;-42
2023/04/18 00:06:13;;;;;;;16.10;11.20;;;7.30;99.90;;;;;;4757305;30;20547;-40
2023/04/18 00:08:40;;;;;;;15.68;10.75;;;7.30;99.90;;;;;;4754970;30;20048;-42
2023/04/18 00:11:07;;;;;;;17.48;11.27;;;7.40;99.90;;;;;;4752278;30;20048;-42
2023/04/18 00:13:37;;;;;;;17.20;10.45;;;7.30;99.90;;;;;;4752114;30;20127;-41
2023/04/18 00:16:06;;;;;;;18.75;11.45;;;7.40;99.90;;;;;;4758776;30;20063;-40
2023/04/18 00:18:35;;;;;;;14.38;10.35;;;7.40;99.90;;;;;;4749570;30;20060;-40
2023/04/18 00:21:03;;;;;;;15.55;11.02;;;7.40;99.90;;;;;;4750719;30;20059;-40
2023/04/18 00:23:33;;;;;;;17.08;11.00;;;7.40;99.90;;;;;;4750049;30;20048;-42
2023/04/18 00:26:01;;;;;;;13.57;10.57;;;7.40;99.90;;;;;;4754210;30;20123;-42
2023/04/18 00:28:28;;;;;;;14.43;10.82;;;7.40;99.90;;;;;;4760178;30;20128;-45
2023/04/18 00:30:55;;;;;;;16.27;10.82;;;7.40;99.90;;;;;;4755171;30;20048;-41
2023/04/18 00:33:23;;;;;;;19.67;10.82;;;7.40;99.90;;;;;;4750788;30;20094;-41
2023/04/18 00:35:52;;;;;;;15.95;10.50;;;7.30;99.90;;;;;;4751455;30;20076;-42
2023/04/18 00:38:19;;;;;;;15.48;10.52;;;7.30;99.90;;;;;;4751801;30;20058;-42
2023/04/18 00:40:47;;;;;;;16.40;11.07;;;7.30;99.90;;;;;;4751536;30;20052;-42
2023/04/18 00:43:15;;;;;;;16.38;10.73;;;7.20;99.90;;;;;;4751418;30;20128;-43
2023/04/18 00:45:43;;;;;;;16.17;10.70;;;7.10;99.90;;;;;;4757197;30;20049;-42
2023/04/18 00:48:11;;;;;;;18.92;10.77;;;7.10;99.90;;;;;;4748242;30;20515;-39
2023/04/18 00:50:40;;;;;;;16.45;11.05;;;7.20;99.90;;;;;;4750634;30;20530;-41
2023/04/18 00:53:09;;;;;;;16.45;10.73;;;7.20;99.90;;;;;;4750412;30;20060;-38
2023/04/18 00:55:37;;;;;;;16.40;10.85;;;7.00;99.90;;;;;;4746119;30;20056;-43
2023/04/18 00:58:05;;;;;;;17.23;11.48;;;7.00;99.90;;;;;;4750552;30;20088;-42
2023/04/18 01:00:32;;;;;;;16.50;10.85;;;7.00;99.90;;;;;;4745982;30;20541;-39
2023/04/18 01:02:59;;;;;;;17.55;11.38;;;7.00;99.90;;;;;;4747960;30;20052;-40
2023/04/18 01:05:27;;;;;;;15.38;11.27;;;7.00;99.90;;;;;;4748163;30;20109;-41
2023/04/18 01:07:59;;;;;;;15.13;10.80;;;7.00;99.90;;;;;;4748906;30;20047;-42
2023/04/18 01:10:29;;;;;;;18.00;10.65;;;7.00;99.90;;;;;;4754030;30;20079;-42
2023/04/18 01:13:17;;;;;;;16.85;11.27;;;7.00;99.90;;;;;;4765842;30;20124;-40
2023/04/18 01:15:47;;;;;;;17.15;11.90;;;7.10;99.90;;;;;;4744216;30;20052;-42
2023/04/18 01:18:15;;;;;;;15.05;11.63;;;7.10;99.90;;;;;;4753736;30;20557;-39
2023/04/18 01:20:46;;;;;;;18.85;12.30;;;7.10;99.90;;;;;;4750114;30;20198;-39
2023/04/18 01:23:15;;;;;;;15.18;11.27;;;7.00;99.90;;;;;;4749218;30;20115;-39
2023/04/18 01:25:43;;;;;;;17.52;11.30;;;7.10;99.90;;;;;;4751359;30;20119;-41
2023/04/18 01:28:13;;;;;;;18.42;11.60;;;7.10;99.90;;;;;;4749292;30;20164;-42
2023/04/18 01:30:40;;;;;;;16.92;11.95;;;7.10;99.90;;;;;;4746927;30;20052;-41
2023/04/18 01:33:07;;;;;;;16.17;11.10;;;7.00;99.90;;;;;;4749938;30;20102;-41
2023/04/18 01:35:35;;;;;;;15.63;11.25;;;7.10;99.90;;;;;;4750215;30;20056;-41
2023/04/18 01:38:02;;;;;;;16.92;11.32;;;7.10;99.90;;;;;;4752334;30;20044;-41
2023/04/18 01:40:30;;;;;;;15.82;11.48;;;7.00;99.90;;;;;;4748654;30;20056;-42
2023/04/18 01:42:59;;;;;;;14.57;11.27;;;7.00;99.90;;;;;;4755374;30;20048;-42
2023/04/18 01:45:26;;;;;;;19.83;11.85;;;7.00;99.90;;;;;;4746697;30;20059;-41
2023/04/18 01:47:53;;;;;;;15.30;10.38;;;7.10;99.90;;;;;;4749788;30;20048;-42
2023/04/18 01:50:21;;;;;;;15.20;10.88;;;7.00;99.90;;;;;;4748783;30;20075;-40
2023/04/18 01:52:48;;;;;;;16.10;11.48;;;7.10;99.90;;;;;;4759029;30;20083;-41
2023/04/18 01:55:16;;;;;;;17.55;11.10;;;7.10;99.90;;;;;;4755573;30;20059;-41
2023/04/18 01:57:43;;;;;;;17.33;11.07;;;7.10;99.90;;;;;;4758720;30;20067;-41
2023/04/18 02:00:11;;;;;;;16.42;11.52;;;7.10;99.90;;;;;;4754470;30;20143;-40
2023/04/18 02:02:41;;;;;;;14.70;10.85;;;7.10;99.90;;;;;;4743170;30;20122;-42
2023/04/18 02:05:09;;;;;;;19.80;11.35;;;7.20;99.90;;;;;;4749268;30;20160;-42
2023/04/18 02:07:39;;;;;;;17.45;11.40;;;7.20;99.90;;;;;;4749868;30;20072;-42
2023/04/18 02:10:09;;;;;;;15.27;11.68;;;7.20;99.90;;;;;;4731125;30;20076;-43
2023/04/18 02:12:36;;;;;;;16.52;11.02;;;7.20;99.90;;;;;;4750245;30;20378;-41
2023/04/18 02:15:04;;;;;;;17.20;11.32;;;7.20;99.90;;;;;;4747711;30;20048;-41
2023/04/18 02:17:35;;;;;;;14.60;11.18;;;7.20;99.90;;;;;;4750214;30;20151;-41
2023/04/18 02:20:02;;;;;;;14.68;11.18;;;7.20;99.90;;;;;;4749348;30;20501;-39
2023/04/18 02:22:30;;;;;;;14.88;11.10;;;7.20;99.90;;;;;;4749468;30;20733;-40
2023/04/18 02:24:59;;;;;;;16.83;11.55;;;7.20;99.90;;;;;;4750575;30;20044;-43
2023/04/18 02:27:27;;;;;;;16.33;11.25;;;7.20;99.90;;;;;;4749707;30;20518;-41
2023/04/18 02:29:56;;;;;;;16.95;11.40;;;7.30;99.90;;;;;;4747003;30;20147;-39
2023/04/18 02:32:23;;;;;;;18.58;11.38;;;7.30;99.90;;;;;;4749082;30;20144;-42
2023/04/18 02:34:51;;;;;;;16.65;11.40;;;7.30;99.90;;;;;;4749999;30;20147;-42
2023/04/18 02:37:18;;;;;;;15.63;10.40;;;7.30;99.90;;;;;;4749209;30;20565;-42
2023/04/18 02:39:45;;;;;;;14.25;10.23;;;7.30;99.90;;;;;;4750751;30;20403;-40
2023/04/18 02:42:13;;;;;;;18.38;10.55;;;7.40;99.90;;;;;;4753018;30;20052;-41
2023/04/18 02:44:40;;;;;;;18.17;11.23;;;7.40;99.90;;;;;;4749402;30;20048;-42
2023/04/18 02:47:08;;;;;;;15.23;11.27;;;7.40;99.90;;;;;;4751760;30;20056;-38
2023/04/18 02:49:39;;;;;;;15.02;11.63;;;7.40;99.90;;;;;;4749640;30;20174;-41
2023/04/18 02:52:06;;;;;;;17.25;11.10;;;7.40;99.90;;;;;;4746661;30;20048;-43
2023/04/18 02:54:33;;;;;;;16.45;11.57;;;7.30;99.90;;;;;;4752944;30;20505;-40
2023/04/18 02:57:08;;;;;;;16.05;11.25;;;7.30;99.90;;;;;;4756973;30;20055;-41
2023/04/18 02:59:52;;;;;;;16.45;11.05;;;7.20;99.90;;;;;;4751544;30;20048;-41
2023/04/18 03:02:42;;;;;;;16.27;11.65;;;7.10;99.90;;;;;;4758632;30;20054;-40
2023/04/18 03:05:24;;;;;;;16.35;11.18;;;7.20;99.90;;;;;;4753740;30;20143;-42
2023/04/18 03:07:55;;;;;;;14.02;10.25;;;7.20;99.90;;;;;;4758741;30;20063;-42
2023/04/18 03:10:22;;;;;;;15.75;11.77;;;7.10;99.90;;;;;;4765965;30;20143;-40
2023/04/18 03:12:49;;;;;;;13.13;10.35;;;7.10;99.90;;;;;;4768949;30;20056;-42
2023/04/18 03:15:18;;;;;;;14.80;11.00;;;7.10;99.90;;;;;;4751752;30;20497;-38
2023/04/18 03:17:46;;;;;;;15.68;11.07;;;7.20;99.90;;;;;;4751530;30;20105;-42
2023/04/18 03:20:14;;;;;;;16.27;11.07;;;7.20;99.90;;;;;;4749573;30;20055;-41
2023/04/18 03:22:42;;;;;;;15.65;11.18;;;7.20;99.90;;;;;;4750405;30;20052;-41
2023/04/18 03:25:10;;;;;;;19.38;11.20;;;7.20;99.90;;;;;;4749408;30;20438;-41
2023/04/18 03:27:44;;;;;;;18.13;10.88;;;7.20;99.90;;;;;;4751487;30;20056;-41
2023/04/18 03:30:16;;;;;;;15.57;10.82;;;7.20;99.90;;;;;;4757178;30;20400;-39
2023/04/18 03:32:49;;;;;;;15.23;10.60;;;7.20;99.90;;;;;;4758269;30;20074;-41
2023/04/18 03:35:16;;;;;;;18.60;11.45;;;7.20;99.90;;;;;;4752869;30;20192;-42
2023/04/18 03:37:44;;;;;;;15.75;11.02;;;7.30;99.90;;;;;;4751321;30;20060;-41
2023/04/18 03:40:18;;;;;;;15.45;10.73;;;7.20;99.90;;;;;;4750568;30;20069;-41
2023/04/18 03:42:47;;;;;;;16.58;11.35;;;7.20;99.90;;;;;;4749067;30;20048;-39
2023/04/18 03:45:15;;;;;;;15.20;10.85;;;7.20;99.90;;;;;;4750624;30;20053;-40
2023/04/18 03:47:45;;;;;;;14.48;11.00;;;7.30;99.90;;;;;;4756069;30;20053;-40
2023/04/18 03:50:12;;;;;;;16.63;11.07;;;7.20;99.90;;;;;;4747138;30;20093;-42
2023/04/18 03:52:42;;;;;;;16.02;10.93;;;7.30;99.90;;;;;;4753058;30;20139;-43
2023/04/18 03:55:10;;;;;;;16.50;10.95;;;7.30;99.90;;;;;;4759285;30;20056;-42
2023/04/18 03:57:37;;;;;;;16.83;10.68;;;7.20;99.90;;;;;;4756663;30;20059;-40
2023/04/18 04:00:12;;;;;;;17.10;12.05;;;7.20;99.90;;;;;;4744995;30;20094;-40
2023/04/18 04:02:42;;;;;;;15.95;11.30;;;7.20;99.90;;;;;;4749318;30;20063;-39
2023/04/18 04:05:16;;;;;;;17.55;11.63;;;7.20;99.90;;;;;;4755132;30;20062;-42
2023/04/18 04:07:44;;;;;;;18.13;12.07;;;7.30;99.90;;;;;;4766934;30;20576;-42
2023/04/18 04:10:12;;;;;;;21.88;13.02;;;7.30;99.90;;;;;;4749073;30;20062;-42
2023/04/18 04:12:39;;;;;;;16.85;11.52;;;7.30;99.90;;;;;;4749307;30;20063;-40
2023/04/18 04:15:07;;;;;;;17.17;11.80;;;7.40;99.90;;;;;;4747660;30;20048;-40
2023/04/18 04:17:37;;;;;;;19.75;13.15;;;7.40;99.90;;;;;;4749835;30;20109;-40
2023/04/18 04:20:05;;;;;;;22.23;13.68;;;7.50;99.90;;;;;;4752362;30;20113;-39
2023/04/18 04:22:33;;;;;;;22.40;14.50;;;7.60;99.90;;;;;;4763781;30;20068;-40
2023/04/18 04:25:01;;;;;;;21.90;14.38;;;7.60;99.90;;;;;;4751309;30;20480;-40
2023/04/18 04:27:35;;;;;;;20.70;13.88;;;7.70;99.90;;;;;;4750532;30;20049;-40
2023/04/18 04:30:07;;;;;;;21.20;13.77;;;7.80;99.90;;;;;;4745485;30;20041;-38
2023/04/18 04:32:37;;;;;;;21.40;14.48;;;7.80;99.90;;;;;;4749142;30;20056;-40
2023/04/18 04:35:07;;;;;;;22.35;15.20;;;7.90;99.90;;;;;;4751038;30;20056;-39
2023/04/18 04:37:35;;;;;;;23.77;15.57;;;8.00;99.90;;;;;;4762405;30;20056;-40
2023/04/18 04:40:14;;;;;;;22.45;14.32;;;8.10;99.90;;;;;;4751070;30;20056;-41
2023/04/18 04:42:52;;;;;;;21.73;14.98;;;8.10;99.90;;;;;;4755078;30;20072;-42
2023/04/18 04:45:26;;;;;;;23.55;15.45;;;8.10;99.90;;;;;;4754828;30;20438;-41
2023/04/18 04:47:53;;;;;;;22.83;13.40;;;8.20;99.90;;;;;;4743393;30;20441;-40
2023/04/18 04:50:20;;;;;;;24.48;15.23;;;8.20;99.90;;;;;;4744529;30;20063;-43
2023/04/18 04:52:48;;;;;;;25.83;16.08;;;8.30;99.90;;;;;;4764840;30;20127;-40
2023/04/18 04:55:17;;;;;;;24.45;14.73;;;8.30;99.90;;;;;;4749300;30;20139;-39
2023/04/18 04:57:46;;;;;;;22.98;14.73;;;8.30;99.90;;;;;;4751634;30;20055;-41
2023/04/18 05:00:36;;;;;;;22.75;13.88;;;8.30;99.90;;;;;;4747454;30;20060;-39
2023/04/18 05:03:03;;;;;;;21.85;14.77;;;8.40;99.90;;;;;;4748868;30;20116;-40
2023/04/18 05:05:31;;;;;;;24.50;14.13;;;8.50;99.90;;;;;;4749089;30;20451;-43
2023/04/18 05:07:58;;;;;;;25.00;15.15;;;8.50;99.90;;;;;;4756396;30;20143;-40
2023/04/18 05:10:26;;;;;;;21.60;13.65;;;8.60;99.90;;;;;;4747003;30;20110;-41
2023/04/18 05:12:53;;;;;;;24.20;14.77;;;8.60;99.90;;;;;;4747683;30;20066;-40
2023/04/18 05:15:20;;;;;;;23.20;14.88;;;8.60;99.90;;;;;;4744231;30;20056;-38
2023/04/18 05:17:47;;;;;;;21.25;14.18;;;8.60;99.90;;;;;;4741092;30;20049;-40
2023/04/18 05:20:15;;;;;;;22.42;14.20;;;8.60;99.90;;;;;;4748734;30;20125;-39
2023/04/18 05:22:42;;;;;;;25.65;14.90;;;8.70;99.90;;;;;;4755047;30;20056;-40
2023/04/18 05:25:11;;;;;;;22.98;14.45;;;8.70;99.90;;;;;;4747017;30;20048;-39
2023/04/18 05:27:39;;;;;;;24.20;15.75;;;8.80;99.90;;;;;;4743746;30;20076;-41
2023/04/18 05:30:07;;;;;;;23.27;14.45;;;8.80;99.90;;;;;;4744745;30;20060;-41
2023/04/18 05:32:34;;;;;;;26.55;16.33;;;8.90;99.90;;;;;;4740656;30;20682;-41
2023/04/18 05:35:02;;;;;;;28.92;16.27;;;9.10;99.90;;;;;;4741712;30;20505;-39
2023/04/18 05:37:29;;;;;;;24.23;15.02;;;9.20;99.90;;;;;;4743591;30;20488;-42
2023/04/18 05:39:56;;;;;;;27.17;15.05;;;9.40;99.90;;;;;;4738652;30;20052;-43
2023/04/18 05:42:26;;;;;;;24.55;15.25;;;9.40;99.90;;;;;;4750931;30;20040;-43
2023/04/18 05:44:54;;;;;;;21.90;14.90;;;9.60;99.90;;;;;;4745214;30;20183;-40
2023/04/18 05:47:22;;;;;;;21.10;14.88;;;9.60;99.90;;;;;;4743855;30;20051;-41
2023/04/18 05:49:50;;;;;;;22.67;14.43;;;9.70;99.90;;;;;;4746194;30;20048;-41
2023/04/18 05:52:17;;;;;;;22.75;14.80;;;9.70;99.90;;;;;;4746436;30;20066;-41
2023/04/18 05:54:44;;;;;;;26.88;15.55;;;9.80;99.90;;;;;;4749866;30;20052;-40
2023/04/18 05:57:12;;;;;;;22.45;13.57;;;9.80;99.90;;;;;;4753033;30;20044;-43
2023/04/18 05:59:39;;;;;;;25.20;16.05;;;9.90;99.90;;;;;;4751309;30;20056;-42
2023/04/18 06:02:11;;;;;;;22.33;15.65;;;9.90;99.90;;;;;;4747664;30;20068;-41
2023/04/18 06:04:40;;;;;;;21.35;14.30;;;9.90;99.90;;;;;;4746589;30;20086;-41
2023/04/18 06:07:08;;;;;;;24.48;14.52;;;9.90;99.90;;;;;;4746222;30;20045;-42
2023/04/18 06:09:36;;;;;;;24.30;14.93;;;9.90;99.90;;;;;;4743757;30;20052;-39
2023/04/18 06:12:03;;;;;;;22.75;14.38;;;10.00;99.90;;;;;;4746040;30;20499;-44
2023/04/18 06:14:31;;;;;;;24.77;15.07;;;10.10;99.90;;;;;;4747269;30;20059;-42
2023/04/18 06:16:58;;;;;;;24.50;14.80;;;10.20;99.90;;;;;;4753913;30;20048;-38
2023/04/18 06:19:26;;;;;;;21.75;15.18;;;10.10;99.90;;;;;;4753451;30;20058;-41
2023/04/18 06:21:53;;;;;;;21.45;14.82;;;10.20;99.90;;;;;;4751806;30;20111;-38
2023/04/18 06:24:20;;;;;;;22.05;14.52;;;10.10;99.90;;;;;;4751562;30;20112;-40
2023/04/18 06:26:47;;;;;;;23.13;15.13;;;10.20;99.90;;;;;;4750567;30;20045;-44
2023/04/18 06:29:16;;;;;;;22.77;15.25;;;10.40;99.90;;;;;;4745352;30;20049;-41
2023/04/18 06:31:44;;;;;;;21.67;14.55;;;10.50;99.90;;;;;;4746838;30;20049;-41
2023/04/18 06:34:12;;;;;;;27.17;14.38;;;10.80;99.90;;;;;;4756144;30;20130;-43
2023/04/18 06:36:40;;;;;;;21.20;13.80;;;11.10;99.90;;;;;;4757833;30;20511;-40
2023/04/18 06:39:07;;;;;;;25.50;15.15;;;11.30;99.90;;;;;;4750601;30;20052;-40
2023/04/18 06:41:35;;;;;;;25.67;15.98;;;11.50;99.90;;;;;;4745809;30;20684;-42
2023/04/18 06:44:02;;;;;;;24.92;16.35;;;11.60;99.90;;;;;;4741072;30;20048;-39
2023/04/18 06:46:31;;;;;;;19.98;14.25;;;11.80;99.90;;;;;;4749826;30;20555;-44
2023/04/18 06:48:59;;;;;;;23.38;15.43;;;11.70;99.90;;;;;;4753079;30;20171;-43
2023/04/18 06:51:26;;;;;;;23.98;14.52;;;11.80;99.90;;;;;;4755284;30;20056;-45
2023/04/18 06:53:54;;;;;;;19.85;14.23;;;11.60;99.90;;;;;;4757713;30;20135;-42
2023/04/18 06:56:21;;;;;;;21.30;15.50;;;11.40;99.90;;;;;;4757197;30;20048;-42
2023/04/18 06:58:51;;;;;;;20.95;14.68;;;11.60;99.90;;;;;;4750633;30;20044;-39
2023/04/18 07:01:19;;;;;;;24.58;15.48;;;11.50;99.90;;;;;;4747220;30;20046;-44
2023/04/18 07:03:46;;;;;;;21.83;14.95;;;11.70;99.90;;;;;;4751023;30;20052;-39
2023/04/18 07:06:14;;;;;;;19.50;14.15;;;12.00;99.90;;;;;;4751531;30;20457;-43
2023/04/18 07:08:41;;;;;;;19.92;14.20;;;12.20;99.90;;;;;;4756715;30;20058;-44
2023/04/18 07:11:10;;;;;;;21.88;14.93;;;12.20;99.90;;;;;;4752845;30;20071;-40
2023/04/18 07:13:37;;;;;;;18.10;13.63;;;12.50;99.90;;;;;;4753697;30;20141;-43
2023/04/18 07:16:05;;;;;;;19.20;13.45;;;12.50;99.90;;;;;;4752681;30;20375;-40
2023/04/18 07:18:32;;;;;;;20.35;13.02;;;12.50;99.90;;;;;;4752105;30;20052;-40
2023/04/18 07:21:08;;;;;;;19.23;13.10;;;12.70;99.90;;;;;;4744134;30;20056;-40
2023/04/18 07:23:35;;;;;;;15.95;12.60;;;12.70;99.90;;;;;;4749260;30;20052;-39
2023/04/18 07:26:04;;;;;;;17.45;12.43;;;12.50;99.90;;;;;;4744649;30;20530;-39
2023/04/18 07:28:32;;;;;;;16.30;12.00;;;12.60;99.90;;;;;;4750883;30;20127;-40
2023/04/18 07:31:01;;;;;;;17.92;12.52;;;12.70;99.90;;;;;;4747584;30;20052;-38
2023/04/18 07:33:32;;;;;;;18.98;12.35;;;12.90;99.90;;;;;;4751635;30;20076;-38
2023/04/18 07:36:01;;;;;;;18.17;12.35;;;12.90;99.90;;;;;;4751298;30;20076;-39
2023/04/18 07:38:29;;;;;;;17.27;12.40;;;13.10;99.90;;;;;;4745807;30;20075;-41
2023/04/18 07:40:58;;;;;;;17.00;13.05;;;13.10;99.90;;;;;;4748543;30;20147;-40
2023/04/18 07:43:25;;;;;;;15.73;11.82;;;12.70;99.90;;;;;;4749366;30;20055;-39
2023/04/18 07:45:53;;;;;;;15.27;11.95;;;12.80;99.90;;;;;;4752239;30;20052;-41
2023/04/18 07:48:26;;;;;;;18.55;12.45;;;12.90;99.90;;;;;;4751258;30;20064;-44
2023/04/18 07:50:53;;;;;;;17.25;12.73;;;13.00;99.90;;;;;;4752276;30;20059;-41
2023/04/18 07:53:21;;;;;;;16.83;12.13;;;13.10;99.90;;;;;;4749121;30;20561;-41
2023/04/18 07:55:49;;;;;;;21.95;14.07;;;13.30;99.90;;;;;;4744420;30;20040;-42
2023/04/18 07:58:16;;;;;;;16.73;12.75;;;13.30;99.90;;;;;;4746664;30;20139;-39
2023/04/18 08:00:43;;;;;;;14.82;12.10;;;13.40;99.90;;;;;;4744337;30;20163;-39
2023/04/18 08:03:11;;;;;;;15.57;11.82;;;13.60;99.90;;;;;;4753041;30;20052;-42
2023/04/18 08:05:41;;;;;;;15.10;11.50;;;13.80;99.90;;;;;;4751176;30;20143;-40
2023/04/18 08:08:10;;;;;;;16.00;12.27;;;13.70;99.90;;;;;;4751377;30;20458;-39
2023/04/18 08:10:38;;;;;;;16.13;12.45;;;13.80;99.90;;;;;;4753041;30;20048;-43
2023/04/18 08:13:06;;;;;;;16.08;12.30;;;13.90;99.90;;;;;;4755388;30;20048;-43
2023/04/18 08:15:34;;;;;;;14.55;12.10;;;14.10;99.90;;;;;;4751730;30;20056;-40
2023/04/18 08:18:01;;;;;;;15.40;12.10;;;14.00;99.90;;;;;;4751619;30;20477;-43
2023/04/18 08:20:29;;;;;;;13.95;11.15;;;14.00;99.90;;;;;;4752202;30;20044;-45
2023/04/18 08:22:56;;;;;;;15.65;12.43;;;14.30;99.90;;;;;;4750079;30;20048;-42
2023/04/18 08:25:37;;;;;;;13.63;11.40;;;14.50;99.90;;;;;;4750721;30;20052;-39
2023/04/18 08:28:05;;;;;;;16.90;11.40;;;14.50;99.90;;;;;;4752077;30;20144;-42
2023/04/18 08:30:32;;;;;;;13.77;10.95;;;14.50;99.90;;;;;;4755501;30;20062;-42
2023/04/18 08:33:00;;;;;;;14.73;11.88;;;14.50;99.90;;;;;;4760072;30;20131;-41
2023/04/18 08:35:28;;;;;;;16.08;11.80;;;14.60;99.90;;;;;;4750419;30;20509;-44
2023/04/18 08:37:55;;;;;;;16.52;12.88;;;14.90;99.90;;;;;;4746543;30;20075;-37
2023/04/18 08:40:23;;;;;;;16.98;13.18;;;15.20;99.90;;;;;;4762620;30;20060;-43
2023/04/18 08:42:52;;;;;;;16.02;11.18;;;15.60;99.90;;;;;;4750858;30;20051;-39
2023/04/18 08:45:19;;;;;;;13.07;10.98;;;15.80;99.90;;;;;;4751362;30;20127;-39
2023/04/18 08:47:47;;;;;;;14.02;11.88;;;15.80;99.90;;;;;;4750692;30;20150;-41
2023/04/18 08:50:16;;;;;;;13.52;11.32;;;16.00;99.90;;;;;;4748706;30;20410;-41
2023/04/18 08:52:49;;;;;;;13.98;11.63;;;16.00;99.90;;;;;;4749617;30;20063;-39
2023/04/18 08:55:17;;;;;;;13.73;11.45;;;16.10;99.90;;;;;;4749421;30;20569;-38
2023/04/18 08:57:46;;;;;;;13.55;11.02;;;15.90;99.90;;;;;;4751861;30;20056;-46
2023/04/18 09:00:16;;;;;;;13.07;11.25;;;15.70;99.90;;;;;;4742271;30;20518;-39
2023/04/18 09:02:45;;;;;;;14.18;11.68;;;15.30;99.90;;;;;;4748469;30;20056;-41
2023/04/18 09:05:18;;;;;;;14.98;11.65;;;15.10;99.90;;;;;;4751024;30;20596;-43
2023/04/18 09:07:51;;;;;;;12.80;11.27;;;15.30;99.90;;;;;;4744071;30;20059;-40
2023/04/18 09:10:29;;;;;;;13.02;11.32;;;15.50;99.90;;;;;;4750730;30;20467;-40
2023/04/18 09:12:57;;;;;;;15.50;12.23;;;15.50;99.90;;;;;;4751917;30;20056;-40
2023/04/18 09:15:26;;;;;;;13.05;10.55;;;15.80;99.90;;;;;;4749280;30;20056;-41
2023/04/18 09:17:56;;;;;;;12.32;10.70;;;15.90;99.90;;;;;;4755195;30;20052;-41
2023/04/18 09:20:36;;;;;;;12.55;11.02;;;16.20;99.90;;;;;;4748347;30;20107;-44
2023/04/18 09:23:09;;;;;;;12.05;10.55;;;16.40;99.90;;;;;;4745771;30;20040;-41
2023/04/18 09:25:40;;;;;;;11.45;10.25;;;16.30;99.90;;;;;;4742007;30;20140;-40
2023/04/18 09:28:28;;;;;;;12.05;10.73;;;16.20;99.90;;;;;;4740057;30;20062;-42
2023/04/18 09:31:10;;;;;;;10.90;9.80;;;16.30;99.90;;;;;;4746721;30;20063;-43
2023/04/18 09:33:45;;;;;;;12.48;10.73;;;16.20;99.90;;;;;;4748011;30;20062;-45
2023/04/18 09:36:20;;;;;;;12.27;10.25;;;16.10;99.90;;;;;;4749301;30;20513;-41
2023/04/18 09:38:50;;;;;;;11.27;9.50;;;16.00;99.90;;;;;;4749609;30;20063;-40
2023/04/18 09:41:22;;;;;;;10.13;9.00;;;15.90;99.90;;;;;;4755570;30;20066;-40
2023/04/18 09:44:06;;;;;;;9.93;8.93;;;15.70;99.90;;;;;;4753579;30;20521;-42
2023/04/18 09:46:34;;;;;;;10.40;9.30;;;15.60;99.90;;;;;;4752363;30;20074;-42
2023/04/18 09:49:01;;;;;;;12.70;10.25;;;15.90;99.90;;;;;;4755493;30;20074;-42
2023/04/18 09:51:30;;;;;;;12.18;10.25;;;16.00;99.90;;;;;;4749538;30;20135;-42
2023/04/18 09:53:59;;;;;;;10.98;8.80;;;16.10;99.90;;;;;;4749992;30;20397;-42
2023/04/18 09:56:28;;;;;;;12.43;9.85;;;16.20;99.90;;;;;;4749156;30;20506;-40
2023/04/18 09:59:10;;;;;;;11.88;9.85;;;16.20;99.90;;;;;;4755696;30;20111;-39
2023/04/18 10:01:43;;;;;;;13.10;9.57;;;16.40;99.90;;;;;;4748503;30;20153;-41
2023/04/18 10:04:11;;;;;;;10.27;8.57;;;16.40;99.90;;;;;;4746003;30;20052;-40
2023/04/18 10:06:40;;;;;;;13.02;9.77;;;16.50;99.90;;;;;;4744220;30;20122;-41
2023/04/18 10:09:09;;;;;;;11.07;8.38;;;16.40;99.90;;;;;;4743661;30;20139;-41
2023/04/18 10:11:36;;;;;;;8.95;8.00;;;16.40;99.90;;;;;;4747939;30;20736;-40
2023/04/18 10:14:08;;;;;;;9.75;8.20;;;16.40;99.90;;;;;;4744555;30;20052;-40
2023/04/18 10:16:37;;;;;;;9.55;8.55;;;16.20;99.90;;;;;;4750235;30;20518;-40
2023/04/18 10:19:25;;;;;;;9.65;7.85;;;16.20;99.90;;;;;;4750821;30;20075;-42
2023/04/18 10:21:57;;;;;;;8.55;7.53;;;16.10;99.90;;;;;;4759613;30;20139;-41
2023/04/18 10:24:52;;;;;;;8.55;7.60;;;15.90;99.90;;;;;;4751318;30;20048;-43
2023/04/18 10:27:48;;;;;;;8.98;7.13;;;15.70;99.90;;;;;;4750653;30;20064;-41
2023/04/18 10:30:17;;;;;;;9.52;7.65;;;15.50;99.90;;;;;;4744008;30;20053;-38
2023/04/18 10:32:47;;;;;;;11.93;8.13;;;15.50;99.90;;;;;;4765914;24;20386;-49
2023/04/18 10:35:14;;;;;;;9.75;7.50;;;15.70;99.90;;;;;;4766219;30;20465;-45
2023/04/18 10:37:57;;;;;;;10.35;7.07;;;15.90;99.90;;;;;;4769316;30;20067;-45
2023/04/18 10:40:33;;;;;;;8.38;7.47;;;16.10;99.90;;;;;;4766710;30;20574;-48
2023/04/18 10:43:00;;;;;;;8.63;7.20;;;16.30;99.90;;;;;;4762141;30;20123;-51
2023/04/18 10:45:31;;;;;;;9.20;7.68;;;16.50;99.90;;;;;;4760357;30;20071;-48
2023/04/18 10:48:26;;;;;;;8.73;7.82;;;16.60;99.90;;;;;;4762618;30;20040;-48
2023/04/18 10:51:12;;;;;;;8.23;7.43;;;16.50;99.90;;;;;;4766744;30;20068;-48
2023/04/18 10:53:53;;;;;;;9.18;7.22;;;16.30;99.90;;;;;;4758140;30;20048;-47
2023/04/18 10:56:20;;;;;;;11.60;8.50;;;16.10;99.90;;;;;;4765617;30;20059;-47
2023/04/18 10:58:51;;;;;;;12.50;7.60;;;16.00;99.90;;;;;;4765789;30;20048;-47
2023/04/18 11:01:23;;;;;;;8.98;7.95;;;15.90;99.90;;;;;;4766370;30;20052;-44
2023/04/18 11:03:52;;;;;;;7.90;7.10;;;15.80;99.90;;;;;;4763182;30;20233;-47
2023/04/18 11:06:20;;;;;;;9.88;6.93;;;15.80;99.90;;;;;;4758288;30;20056;-47
2023/04/18 11:08:49;;;;;;;7.80;7.00;;;15.70;99.90;;;;;;4764795;30;20134;-50
2023/04/18 11:11:16;;;;;;;7.30;6.57;;;15.60;99.90;;;;;;4762023;30;20131;-48
2023/04/18 11:13:58;;;;;;;7.90;7.07;;;15.40;99.90;;;;;;4759395;30;20565;-53
2023/04/18 11:16:27;;;;;;;8.20;7.22;;;15.30;99.90;;;;;;4768813;30;20549;-50
2023/04/18 11:18:54;;;;;;;12.60;7.72;;;15.00;99.90;;;;;;4762079;30;20444;-46
2023/04/18 11:21:28;;;;;;;9.02;7.65;;;14.90;99.90;;;;;;4768896;30;20418;-50
2023/04/18 11:23:57;;;;;;;13.90;8.18;;;14.90;99.90;;;;;;4763579;30;20058;-47
2023/04/18 11:26:25;;;;;;;9.48;8.02;;;14.90;99.90;;;;;;4767809;30;20080;-50
2023/04/18 11:28:56;;;;;;;8.52;7.38;;;14.70;99.90;;;;;;4761139;30;20049;-48
2023/04/18 11:31:24;;;;;;;8.55;7.22;;;14.70;99.90;;;;;;4767670;30;20055;-48
2023/04/18 11:33:55;;;;;;;7.70;6.90;;;14.90;99.90;;;;;;4764808;30;20075;-48
2023/04/18 11:36:22;;;;;;;8.57;7.45;;;15.10;99.90;;;;;;4754374;30;20056;-52
2023/04/18 11:38:49;;;;;;;7.78;6.97;;;15.40;99.90;;;;;;4763910;30;20077;-48
2023/04/18 11:41:16;;;;;;;9.90;7.25;;;15.60;99.90;;;;;;4767392;30;20069;-48
2023/04/18 11:43:45;;;;;;;10.63;7.35;;;15.80;99.90;;;;;;4760756;30;20048;-47
2023/04/18 11:46:12;;;;;;;7.70;6.90;;;16.00;99.90;;;;;;4760699;30;20549;-50
2023/04/18 11:48:41;;;;;;;7.38;6.38;;;16.30;99.90;;;;;;4762046;30;20550;-50
2023/04/18 11:51:37;;;;;;;8.45;6.75;;;16.60;99.90;;;;;;4759298;30;20127;-50
2023/04/18 11:54:04;;;;;;;9.00;7.13;;;16.30;99.90;;;;;;4756117;30;20055;-47
2023/04/18 11:56:32;;;;;;;8.75;7.40;;;16.10;99.90;;;;;;4765142;30;20056;-49
2023/04/18 11:59:09;;;;;;;8.80;7.25;;;15.90;99.90;;;;;;4763460;30;20113;-50
2023/04/18 12:01:36;;;;;;;8.05;7.25;;;15.80;99.90;;;;;;4764108;30;20132;-48
2023/04/18 12:04:07;;;;;;;9.85;7.90;;;15.60;99.90;;;;;;4761361;30;20128;-47
2023/04/18 12:06:49;;;;;;;11.43;8.45;;;15.60;99.90;;;;;;4762230;30;20036;-50
2023/04/18 12:09:17;;;;;;;9.73;8.45;;;15.70;99.90;;;;;;4755144;30;20052;-51
2023/04/18 12:11:59;;;;;;;9.75;8.48;;;15.70;99.90;;;;;;4756590;30;20111;-48
2023/04/18 12:14:27;;;;;;;10.60;8.43;;;16.00;99.90;;;;;;4761066;30;20048;-49
2023/04/18 12:16:55;;;;;;;10.45;8.57;;;16.20;99.90;;;;;;4767072;30;20048;-47
2023/04/18 12:19:26;;;;;;;10.27;8.90;;;16.20;99.90;;;;;;4765359;30;20146;-49
2023/04/18 12:21:54;;;;;;;;;;;16.00;99.90;;;;;;4766942;30;20054;-50
2023/04/18 12:24:23;;;;;;;11.63;8.73;;;15.90;99.90;;;;;;4761146;30;20013;-47
2023/04/18 12:26:51;;;;;;;10.75;8.75;;;15.80;99.90;;;;;;4757847;30;20151;-48
2023/04/18 12:29:19;;;;;;;11.52;9.05;;;15.80;99.90;;;;;;4751785;30;20411;-40
2023/04/18 12:31:46;;;;;;;12.93;10.30;;;15.70;99.90;;;;;;4768108;30;20482;-47
2023/04/18 12:34:14;;;;;;;13.20;9.80;;;15.50;99.90;;;;;;4765982;30;20618;-45
2023/04/18 12:36:42;;;;;;;10.73;8.88;;;15.30;99.90;;;;;;4767414;30;20055;-46
2023/04/18 12:39:09;;;;;;;11.35;9.65;;;15.00;99.90;;;;;;4758838;30;20426;-47
2023/04/18 12:41:36;;;;;;;12.43;9.18;;;14.90;99.90;;;;;;4760941;30;20175;-46
2023/04/18 12:44:04;;;;;;;13.48;10.60;;;14.80;99.90;;;;;;4759906;30;20063;-52
2023/04/18 12:46:32;;;;;;;13.43;11.00;;;14.80;99.90;;;;;;4756908;30;20052;-49
2023/04/18 12:48:59;;;;;;;11.55;9.90;;;14.70;99.90;;;;;;4759753;30;20486;-50